createdAt,value
2017-11-06T00:01:36.583Z,30.17
2017-11-06T00:04:04.111Z,32.33
2017-11-06T00:06:31.652Z,29.98
2017-11-06T00:08:59.209Z,31.12
2017-11-06T00:11:27.142Z,24.83
2017-11-06T00:13:54.682Z,25.98
2017-11-06T00:16:22.196Z,31.70
2017-11-06T00:18:49.759Z,27.23
2017-11-06T00:21:17.288Z,26.25
2017-11-06T00:23:44.822Z,26.60
2017-11-06T00:26:12.365Z,34.03
2017-11-06T00:28:39.887Z,32.22
2017-11-06T00:31:07.826Z,28.73
2017-11-06T00:33:35.357Z,33.10
2017-11-06T00:36:02.894Z,27.60
2017-11-06T00:38:30.839Z,25.90
2017-11-06T00:40:58.385Z,22.95
2017-11-06T00:43:25.910Z,24.75
2017-11-06T00:45:53.441Z,27.42
2017-11-06T00:48:20.978Z,31.87
2017-11-06T00:50:48.894Z,28.20
2017-11-06T00:53:16.444Z,28.95
2017-11-06T00:55:43.965Z,30.70
2017-11-06T00:58:11.516Z,29.37
2017-11-06T01:00:39.049Z,26.50
2017-11-06T01:03:06.581Z,28.12
2017-11-06T01:05:34.135Z,28.30
2017-11-06T01:08:01.652Z,27.10
2017-11-06T01:10:29.586Z,32.22
2017-11-06T01:12:57.106Z,26.33
2017-11-06T01:15:25.022Z,29.35
2017-11-06T01:17:52.553Z,28.27
2017-11-06T01:20:20.468Z,35.08
2017-11-06T01:22:48.095Z,40.60
2017-11-06T01:25:15.625Z,34.00
2017-11-06T01:27:43.149Z,27.73
2017-11-06T01:30:11.090Z,34.25
2017-11-06T01:32:38.613Z,29.23
2017-11-06T01:35:06.592Z,26.00
2017-11-06T01:37:34.508Z,30.88
2017-11-06T01:40:02.030Z,30.35
2017-11-06T01:42:30.307Z,38.92
2017-11-06T01:44:57.836Z,30.35
2017-11-06T01:47:25.383Z,28.27
2017-11-06T01:49:52.910Z,45.33
2017-11-06T01:52:20.437Z,40.75
2017-11-06T01:54:47.974Z,41.33
2017-11-06T01:57:15.511Z,44.83
2017-11-06T01:59:43.074Z,63.83
2017-11-06T02:02:10.595Z,61.35
2017-11-06T02:04:38.519Z,74.68
2017-11-06T02:07:06.065Z,72.75
2017-11-06T02:09:33.591Z,76.65
2017-11-06T02:12:01.147Z,88.70
2017-11-06T02:14:28.665Z,86.53
2017-11-06T02:16:56.184Z,89.53
2017-11-06T02:19:23.727Z,83.45
2017-11-06T02:21:51.256Z,78.72
2017-11-06T02:24:18.834Z,85.15
2017-11-06T02:26:46.385Z,76.15
2017-11-06T02:29:13.899Z,91.12
2017-11-06T02:31:41.840Z,81.30
2017-11-06T02:34:09.367Z,90.85
2017-11-06T02:36:36.919Z,92.35
2017-11-06T02:39:04.851Z,97.72
2017-11-06T02:41:32.397Z,80.50
2017-11-06T02:43:59.916Z,91.55
2017-11-06T02:46:27.471Z,83.35
2017-11-06T02:48:55.003Z,77.18
2017-11-06T02:51:22.542Z,72.12
2017-11-06T02:53:50.068Z,84.82
2017-11-06T02:56:17.651Z,81.87
2017-11-06T02:58:45.180Z,83.65
2017-11-06T03:01:12.710Z,77.22
2017-11-06T03:03:40.253Z,83.65
2017-11-06T03:06:07.779Z,64.47
2017-11-06T03:08:35.708Z,83.40
2017-11-06T03:11:03.262Z,80.05
2017-11-06T03:13:30.804Z,79.00
2017-11-06T03:15:58.721Z,76.37
2017-11-06T03:18:26.276Z,77.72
2017-11-06T03:20:53.795Z,85.62
2017-11-06T03:23:21.312Z,82.45
2017-11-06T03:25:48.862Z,72.82
2017-11-06T03:28:16.390Z,78.10
2017-11-06T03:30:43.932Z,80.50
2017-11-06T03:33:11.463Z,77.68
2017-11-06T03:35:39.028Z,88.15
2017-11-06T03:38:06.554Z,79.85
2017-11-06T03:40:34.077Z,74.82
2017-11-06T03:43:01.630Z,80.70
2017-11-06T03:45:29.150Z,95.53
2017-11-06T03:47:56.701Z,82.55
2017-11-06T03:50:24.221Z,79.60
2017-11-06T03:52:51.795Z,85.60
2017-11-06T03:55:19.322Z,78.00
2017-11-06T03:57:46.834Z,80.57
2017-11-06T04:00:14.385Z,75.18
2017-11-06T04:02:41.945Z,79.12
2017-11-06T04:05:09.930Z,68.25
2017-11-06T04:07:37.854Z,75.05
2017-11-06T04:10:05.374Z,72.45
2017-11-06T04:12:32.913Z,67.70
2017-11-06T04:15:00.434Z,73.07
2017-11-06T04:17:27.994Z,69.95
2017-11-06T04:19:56.029Z,83.90
2017-11-06T04:22:23.546Z,68.93
2017-11-06T04:24:51.491Z,77.57
2017-11-06T04:27:19.014Z,68.12
2017-11-06T04:29:46.574Z,62.10
2017-11-06T04:32:14.106Z,67.40
2017-11-06T04:34:41.637Z,69.57
2017-11-06T04:37:09.187Z,63.65
2017-11-06T04:39:36.711Z,65.28
2017-11-06T04:42:04.275Z,63.15
2017-11-06T04:44:31.798Z,62.28
2017-11-06T04:46:59.728Z,63.65
2017-11-06T04:49:27.274Z,59.88
2017-11-06T04:51:54.814Z,58.67
2017-11-06T04:54:22.760Z,66.05
2017-11-06T04:56:50.287Z,56.08
2017-11-06T04:59:17.873Z,63.25
2017-11-06T05:01:45.402Z,62.90
2017-11-06T05:04:13.329Z,72.45
2017-11-06T05:06:40.882Z,63.03
2017-11-06T05:09:08.404Z,71.93
2017-11-06T05:11:36.032Z,59.97
2017-11-06T05:14:03.556Z,62.03
2017-11-06T05:16:31.130Z,64.50
2017-11-06T05:18:58.644Z,69.50
2017-11-06T05:21:26.164Z,70.18
2017-11-06T05:23:53.746Z,69.15
2017-11-06T05:26:21.265Z,69.85
2017-11-06T05:28:48.810Z,85.18
2017-11-06T05:31:16.329Z,74.90
2017-11-06T05:33:43.901Z,85.30
2017-11-06T05:36:11.417Z,81.45
2017-11-06T05:38:38.940Z,79.90
2017-11-06T05:41:06.490Z,88.15
2017-11-06T05:43:34.013Z,83.72
2017-11-06T05:46:01.550Z,90.15
2017-11-06T05:48:29.074Z,90.28
2017-11-06T05:50:56.620Z,87.82
2017-11-06T05:53:24.160Z,87.07
2017-11-06T05:55:51.733Z,104.93
2017-11-06T05:58:19.252Z,85.03
2017-11-06T06:00:46.773Z,98.45
2017-11-06T06:03:14.319Z,90.93
2017-11-06T06:05:41.844Z,89.57
2017-11-06T06:08:09.386Z,90.68
2017-11-06T06:10:36.922Z,94.62
2017-11-06T06:13:04.878Z,92.97
2017-11-06T06:15:32.415Z,90.32
2017-11-06T06:17:59.955Z,108.47
2017-11-06T06:20:27.492Z,93.97
2017-11-06T06:22:55.030Z,104.68
2017-11-06T06:25:22.582Z,106.43
2017-11-06T06:27:50.160Z,99.85
2017-11-06T06:30:17.735Z,100.62
2017-11-06T06:32:45.264Z,111.70
2017-11-06T06:35:12.789Z,126.90
2017-11-06T06:37:40.331Z,121.68
2017-11-06T06:40:07.858Z,118.93
2017-11-06T06:42:35.416Z,129.30
2017-11-06T06:45:02.944Z,128.70
2017-11-06T06:47:30.513Z,121.28
2017-11-06T06:49:58.038Z,109.50
2017-11-06T06:52:25.573Z,114.30
2017-11-06T06:54:53.112Z,122.03
2017-11-06T06:57:21.038Z,129.50
2017-11-06T06:59:48.599Z,124.50
2017-11-06T07:02:16.135Z,125.80
2017-11-06T07:04:44.082Z,137.88
2017-11-06T07:07:11.620Z,125.40
2017-11-06T07:09:39.175Z,123.32
2017-11-06T07:12:06.702Z,135.50
2017-11-06T07:14:34.283Z,128.27
2017-11-06T07:17:01.805Z,114.95
2017-11-06T07:19:29.329Z,138.98
2017-11-06T07:21:56.879Z,123.75
2017-11-06T07:24:24.431Z,121.55
2017-11-06T07:26:51.994Z,117.43
2017-11-06T07:29:19.520Z,125.97
2017-11-06T07:31:47.073Z,117.65
2017-11-06T07:34:14.590Z,117.03
2017-11-06T07:36:42.124Z,126.00
2017-11-06T07:39:09.680Z,123.40
2017-11-06T07:41:37.205Z,122.15
2017-11-06T07:44:04.766Z,130.90
2017-11-06T07:46:32.697Z,135.55
2017-11-06T07:49:00.262Z,114.35
2017-11-06T07:51:27.789Z,125.65
2017-11-06T07:53:55.318Z,101.20
2017-11-06T07:56:22.900Z,117.62
2017-11-06T07:58:50.440Z,109.63
2017-11-06T08:01:18.004Z,93.65
2017-11-06T08:03:45.537Z,102.35
2017-11-06T08:06:13.489Z,122.30
2017-11-06T08:08:41.026Z,93.03
2017-11-06T08:11:08.593Z,89.55
2017-11-06T08:13:36.127Z,92.35
2017-11-06T08:16:03.655Z,98.12
2017-11-06T08:18:31.198Z,93.90
2017-11-06T08:20:58.716Z,98.20
2017-11-06T08:23:26.257Z,99.62
2017-11-06T08:25:53.795Z,96.57
2017-11-06T08:28:21.761Z,89.47
2017-11-06T08:30:49.287Z,81.97
2017-11-06T08:33:23.178Z,92.10
2017-11-06T08:35:50.715Z,84.15
2017-11-06T08:38:18.232Z,89.87
2017-11-06T08:40:45.779Z,92.35
2017-11-06T08:43:13.697Z,97.22
2017-11-06T08:45:41.247Z,93.50
2017-11-06T08:48:08.781Z,92.37
2017-11-06T08:50:36.345Z,93.60
2017-11-06T08:53:03.861Z,85.00
2017-11-06T08:55:31.418Z,100.12
2017-11-06T08:57:59.406Z,80.12
2017-11-06T09:00:27.350Z,72.43
2017-11-06T09:02:54.876Z,64.22
2017-11-06T09:05:22.465Z,73.68
2017-11-06T09:07:50.007Z,85.55
2017-11-06T09:10:17.932Z,105.63
2017-11-06T09:12:45.458Z,90.60
2017-11-06T09:15:13.408Z,100.00
2017-11-06T09:17:40.941Z,98.75
2017-11-06T09:20:08.477Z,80.12
2017-11-06T09:22:36.397Z,94.57
2017-11-06T09:25:03.938Z,84.68
2017-11-06T09:27:31.465Z,82.62
2017-11-06T09:29:59.013Z,78.65
2017-11-06T09:32:26.532Z,91.53
2017-11-06T09:34:54.492Z,80.87
2017-11-06T09:37:22.008Z,68.07
2017-11-06T09:39:49.561Z,73.28
2017-11-06T09:42:17.076Z,88.47
2017-11-06T09:44:44.610Z,82.70
2017-11-06T09:47:12.134Z,85.38
2017-11-06T09:49:39.663Z,77.45
2017-11-06T09:52:07.204Z,83.70
2017-11-06T09:54:35.128Z,82.35
2017-11-06T09:57:02.666Z,84.03
2017-11-06T09:59:30.593Z,72.35
2017-11-06T10:01:58.142Z,80.00
2017-11-06T10:04:25.665Z,84.97
2017-11-06T10:06:53.221Z,68.82
2017-11-06T10:09:20.761Z,74.07
2017-11-06T10:11:48.308Z,69.20
2017-11-06T10:14:16.225Z,61.08
2017-11-06T10:16:43.763Z,64.70
2017-11-06T10:19:11.293Z,62.15
2017-11-06T10:21:38.841Z,66.35
2017-11-06T10:24:06.375Z,72.28
2017-11-06T10:26:34.312Z,71.40
2017-11-06T10:29:01.838Z,67.12
2017-11-06T10:31:29.393Z,60.03
2017-11-06T10:33:57.800Z,66.70
2017-11-06T10:36:25.343Z,58.58
2017-11-06T10:38:52.862Z,53.63
2017-11-06T10:41:20.418Z,53.63
2017-11-06T10:43:47.942Z,53.35
2017-11-06T10:46:15.515Z,44.00
2017-11-06T10:48:43.070Z,49.83
2017-11-06T10:51:10.614Z,60.28
2017-11-06T10:53:38.128Z,54.38
2017-11-06T10:56:05.678Z,65.53
2017-11-06T10:58:33.201Z,55.75
2017-11-06T11:01:01.137Z,49.05
2017-11-06T11:03:28.661Z,49.47
2017-11-06T11:05:56.237Z,51.33
2017-11-06T11:08:23.784Z,51.90
2017-11-06T11:10:51.714Z,42.10
2017-11-06T11:13:19.257Z,49.38
2017-11-06T11:15:46.786Z,45.28
2017-11-06T11:18:14.354Z,48.22
2017-11-06T11:20:41.879Z,40.58
2017-11-06T11:23:09.412Z,51.78
2017-11-06T11:25:36.949Z,46.95
2017-11-06T11:28:04.513Z,43.22
2017-11-06T11:30:32.038Z,42.97
2017-11-06T11:32:59.979Z,49.65
2017-11-06T11:35:27.610Z,42.80
2017-11-06T11:37:55.164Z,46.00
2017-11-06T11:40:22.907Z,49.22
2017-11-06T11:42:50.481Z,48.58
2017-11-06T11:45:18.007Z,53.63
2017-11-06T11:47:45.537Z,39.85
2017-11-06T11:50:13.077Z,52.70
2017-11-06T11:52:40.618Z,49.15
2017-11-06T11:55:08.141Z,47.40
2017-11-06T11:57:35.683Z,48.58
2017-11-06T12:00:03.210Z,51.17
2017-11-06T12:02:31.164Z,51.47
2017-11-06T12:04:58.685Z,51.45
2017-11-06T12:07:26.218Z,52.88
2017-11-06T12:09:53.753Z,52.88
2017-11-06T12:12:21.345Z,49.28
2017-11-06T12:14:48.881Z,56.08
2017-11-06T12:17:16.421Z,51.80
2017-11-06T12:19:44.345Z,52.08
2017-11-06T12:22:11.886Z,49.00
2017-11-06T12:24:39.412Z,63.25
2017-11-06T12:27:06.948Z,53.17
2017-11-06T12:29:34.471Z,61.15
2017-11-06T12:32:02.009Z,51.20
2017-11-06T12:34:29.547Z,48.50
2017-11-06T12:36:57.073Z,53.72
2017-11-06T12:39:24.629Z,51.00
2017-11-06T12:41:52.154Z,60.97
2017-11-06T12:44:19.698Z,59.60
2017-11-06T12:46:47.268Z,54.00
2017-11-06T12:49:14.806Z,61.30
2017-11-06T12:51:42.338Z,60.38
2017-11-06T12:54:09.888Z,50.80
2017-11-06T12:56:37.476Z,49.60
2017-11-06T12:59:05.440Z,57.17
2017-11-06T13:01:32.965Z,56.37
2017-11-06T13:04:00.514Z,54.80
2017-11-06T13:06:28.051Z,52.90
2017-11-06T13:08:55.593Z,50.35
2017-11-06T13:11:23.541Z,53.47
2017-11-06T13:13:51.086Z,51.25
2017-11-06T13:16:19.017Z,50.80
2017-11-06T13:18:46.580Z,52.72
2017-11-06T13:21:14.114Z,48.25
2017-11-06T13:23:41.661Z,56.25
2017-11-06T13:26:09.184Z,52.75
2017-11-06T13:28:36.737Z,57.75
2017-11-06T13:31:04.279Z,54.17
2017-11-06T13:33:31.835Z,53.65
2017-11-06T13:35:59.366Z,48.08
2017-11-06T13:38:26.929Z,54.88
2017-11-06T13:40:54.473Z,57.72
2017-11-06T13:43:22.015Z,52.08
2017-11-06T13:45:49.549Z,51.08
2017-11-06T13:48:17.083Z,52.50
2017-11-06T13:50:44.611Z,48.75
2017-11-06T13:53:12.132Z,45.28
2017-11-06T13:55:40.070Z,49.38
2017-11-06T13:58:07.593Z,43.28
2017-11-06T14:00:35.142Z,43.30
2017-11-06T14:03:02.665Z,41.72
2017-11-06T14:05:30.197Z,50.50
2017-11-06T14:07:58.110Z,43.78
2017-11-06T14:10:25.657Z,46.42
2017-11-06T14:12:53.569Z,50.88
2017-11-06T14:15:21.111Z,51.72
2017-11-06T14:17:49.021Z,49.80
2017-11-06T14:20:16.569Z,43.95
2017-11-06T14:22:44.114Z,43.03
2017-11-06T14:25:12.061Z,48.22
2017-11-06T14:27:39.593Z,39.03
2017-11-06T14:30:07.155Z,43.67
2017-11-06T14:32:34.678Z,40.88
2017-11-06T14:35:02.208Z,37.30
2017-11-06T14:37:29.746Z,35.92
2017-11-06T14:39:57.312Z,36.90
2017-11-06T14:42:24.842Z,59.42
2017-11-06T14:44:52.372Z,53.67
2017-11-06T14:47:19.903Z,42.80
2017-11-06T14:49:47.439Z,50.42
2017-11-06T14:52:14.973Z,37.25
2017-11-06T14:54:42.516Z,30.10
2017-11-06T14:57:10.046Z,34.90
2017-11-06T14:59:37.990Z,31.73
2017-11-06T15:02:05.520Z,28.17
2017-11-06T15:04:33.071Z,34.17
2017-11-06T15:07:00.986Z,27.37
2017-11-06T15:09:28.526Z,32.95
2017-11-06T15:11:56.054Z,32.42
2017-11-06T15:14:23.609Z,26.42
2017-11-06T15:16:51.136Z,24.37
2017-11-06T15:19:19.079Z,29.23
2017-11-06T15:21:46.623Z,23.12
2017-11-06T15:24:14.156Z,23.77
2017-11-06T15:26:42.090Z,21.85
2017-11-06T15:29:09.621Z,25.52
2017-11-06T15:31:37.160Z,31.08
2017-11-06T15:34:04.695Z,27.48
2017-11-06T15:36:32.249Z,30.25
2017-11-06T15:38:59.796Z,28.95
2017-11-06T15:41:27.333Z,31.58
2017-11-06T15:43:54.853Z,31.17
2017-11-06T15:46:22.390Z,29.23
2017-11-06T15:48:49.904Z,27.77
2017-11-06T15:51:17.461Z,30.23
2017-11-06T15:53:45.003Z,24.98
2017-11-06T15:56:12.553Z,24.95
2017-11-06T15:58:40.116Z,28.45
2017-11-06T16:01:07.662Z,34.45
2017-11-06T16:03:35.211Z,30.75
2017-11-06T16:06:03.151Z,21.52
2017-11-06T16:08:30.677Z,24.92
2017-11-06T16:10:58.258Z,27.37
2017-11-06T16:13:25.819Z,23.30
2017-11-06T16:15:53.367Z,29.58
2017-11-06T16:18:21.310Z,27.67
2017-11-06T16:20:48.862Z,26.15
2017-11-06T16:23:16.395Z,29.70
2017-11-06T16:25:44.345Z,29.52
2017-11-06T16:28:11.876Z,26.85
2017-11-06T16:30:39.535Z,26.62
2017-11-06T16:33:07.073Z,21.85
2017-11-06T16:35:34.701Z,23.73
2017-11-06T16:38:02.293Z,24.73
2017-11-06T16:40:29.819Z,21.23
2017-11-06T16:42:57.378Z,25.05
2017-11-06T16:45:25.305Z,30.23
2017-11-06T16:47:52.876Z,21.77
2017-11-06T16:50:20.859Z,23.23
2017-11-06T16:52:48.397Z,26.42
2017-11-06T16:55:15.937Z,23.85
2017-11-06T16:57:43.506Z,26.27
2017-11-06T17:00:11.044Z,34.28
2017-11-06T17:02:38.586Z,35.17
2017-11-06T17:05:06.113Z,30.52
2017-11-06T17:07:33.663Z,30.30
2017-11-06T17:10:01.194Z,27.67
2017-11-06T17:12:29.131Z,29.87
2017-11-06T17:14:56.652Z,26.92
2017-11-06T17:17:24.193Z,24.63
2017-11-06T17:19:51.714Z,19.90
2017-11-06T17:22:19.254Z,25.62
2017-11-06T17:24:47.175Z,21.65
2017-11-06T17:27:14.733Z,22.02
2017-11-06T17:29:42.253Z,19.52
2017-11-06T17:32:09.809Z,26.95
2017-11-06T17:34:37.331Z,22.02
2017-11-06T17:37:04.869Z,21.70
2017-11-06T17:39:32.417Z,20.80
2017-11-06T17:41:59.966Z,24.63
2017-11-06T17:44:27.485Z,23.00
2017-11-06T17:46:55.021Z,21.83
2017-11-06T17:49:22.553Z,20.52
2017-11-06T17:51:50.486Z,21.08
2017-11-06T17:54:18.005Z,22.02
2017-11-06T17:56:45.941Z,23.25
2017-11-06T17:59:13.466Z,18.90
2017-11-06T18:01:41.031Z,19.90
2017-11-06T18:04:08.575Z,24.02
2017-11-06T18:06:36.109Z,25.65
2017-11-06T18:09:03.653Z,16.77
2017-11-06T18:11:31.186Z,17.25
2017-11-06T18:13:58.729Z,18.20
2017-11-06T18:16:26.262Z,27.30
2017-11-06T18:18:53.801Z,22.25
2017-11-06T18:21:21.325Z,22.65
2017-11-06T18:23:48.866Z,21.70
2017-11-06T18:26:16.809Z,24.70
2017-11-06T18:28:44.352Z,29.80
2017-11-06T18:31:11.900Z,29.75
2017-11-06T18:33:39.443Z,29.40
2017-11-06T18:36:06.972Z,31.10
2017-11-06T18:38:34.507Z,26.42
2017-11-06T18:41:02.043Z,24.58
2017-11-06T18:43:29.582Z,23.25
2017-11-06T18:45:57.144Z,23.58
2017-11-06T18:48:24.689Z,29.45
2017-11-06T18:50:52.258Z,28.75
2017-11-06T18:53:19.794Z,28.08
2017-11-06T18:55:47.318Z,30.77
2017-11-06T18:58:14.869Z,40.78
2017-11-06T19:00:42.797Z,24.08
2017-11-06T19:03:10.328Z,30.45
2017-11-06T19:05:38.246Z,27.95
2017-11-06T19:08:05.785Z,27.67
2017-11-06T19:10:33.315Z,23.98
2017-11-06T19:13:00.848Z,35.88
2017-11-06T19:15:28.370Z,34.45
2017-11-06T19:17:55.907Z,30.60
2017-11-06T19:20:23.425Z,27.40
2017-11-06T19:22:51.851Z,26.15
2017-11-06T19:25:19.379Z,31.98
2017-11-06T19:27:46.898Z,36.40
2017-11-06T19:30:14.426Z,38.53
2017-11-06T19:32:41.965Z,43.08
2017-11-06T19:35:09.500Z,40.35
2017-11-06T19:37:37.021Z,44.90
2017-11-06T19:40:04.555Z,39.42
2017-11-06T19:42:32.091Z,42.97
2017-11-06T19:44:59.718Z,45.58
2017-11-06T19:47:27.246Z,47.33
2017-11-06T19:49:54.786Z,47.53
2017-11-06T19:52:22.322Z,49.28
2017-11-06T19:54:49.886Z,46.88
2017-11-06T19:57:17.418Z,46.97
2017-11-06T19:59:45.363Z,50.03
2017-11-06T20:02:12.896Z,50.65
2017-11-06T20:04:40.453Z,41.60
2017-11-06T20:07:07.978Z,43.60
2017-11-06T20:09:35.517Z,50.60
2017-11-06T20:12:03.098Z,54.10
2017-11-06T20:14:30.649Z,52.47
2017-11-06T20:16:58.179Z,52.50
2017-11-06T20:19:25.734Z,48.92
2017-11-06T20:21:53.287Z,46.53
2017-11-06T20:24:20.848Z,53.60
2017-11-06T20:26:48.378Z,41.05
2017-11-06T20:29:15.938Z,41.03
2017-11-06T20:31:43.467Z,45.70
2017-11-06T20:34:11.150Z,45.53
2017-11-06T20:36:38.679Z,46.08
2017-11-06T20:39:06.755Z,48.53
2017-11-06T20:41:34.301Z,55.03
2017-11-06T20:44:01.841Z,62.42
2017-11-06T20:46:29.366Z,56.75
2017-11-06T20:48:56.935Z,52.05
2017-11-06T20:51:24.889Z,46.85
2017-11-06T20:53:52.416Z,51.10
2017-11-06T20:56:19.996Z,48.53
2017-11-06T20:58:47.568Z,46.58
2017-11-06T21:01:15.129Z,48.67
2017-11-06T21:03:42.665Z,47.83
2017-11-06T21:06:10.212Z,40.70
2017-11-06T21:08:37.724Z,38.72
2017-11-06T21:11:05.716Z,39.95
2017-11-06T21:13:33.639Z,41.83
2017-11-06T21:16:01.169Z,43.13
2017-11-06T21:18:28.708Z,37.25
2017-11-06T21:20:56.263Z,34.38
2017-11-06T21:23:23.802Z,33.20
2017-11-06T21:25:51.371Z,33.25
2017-11-06T21:28:18.926Z,35.92
2017-11-06T21:30:51.272Z,30.92
2017-11-06T21:33:18.819Z,32.15
2017-11-06T21:35:46.366Z,30.23
2017-11-06T21:38:13.917Z,31.00
2017-11-06T21:40:41.864Z,27.70
2017-11-06T21:43:09.415Z,27.17
2017-11-06T21:45:36.950Z,24.90
2017-11-06T21:48:04.945Z,24.95
2017-11-06T21:50:32.477Z,26.27
2017-11-06T21:53:00.014Z,29.90
2017-11-06T21:55:27.952Z,24.52
2017-11-06T21:57:55.510Z,27.62
2017-11-06T22:00:23.026Z,27.55
2017-11-06T22:02:50.606Z,22.98
2017-11-06T22:05:18.143Z,24.02
2017-11-06T22:07:46.072Z,23.30
2017-11-06T22:10:13.830Z,27.85
2017-11-06T22:12:41.357Z,23.98
2017-11-06T22:15:09.294Z,26.23
2017-11-06T22:17:36.823Z,25.62
2017-11-06T22:20:04.820Z,24.85
2017-11-06T22:22:32.366Z,29.48
2017-11-06T22:24:59.942Z,28.12
2017-11-06T22:27:27.475Z,25.20
2017-11-06T22:29:55.003Z,26.90
2017-11-06T22:32:22.546Z,24.83
2017-11-06T22:34:50.475Z,19.17
2017-11-06T22:37:18.015Z,20.37
2017-11-06T22:39:45.927Z,20.92
2017-11-06T22:42:13.471Z,20.92
2017-11-06T22:44:41.011Z,23.80
2017-11-06T22:47:08.574Z,19.80
2017-11-06T22:49:36.100Z,22.80
2017-11-06T22:52:03.612Z,23.08
2017-11-06T22:54:31.175Z,26.12
2017-11-06T22:56:58.704Z,19.62
2017-11-06T22:59:26.257Z,21.48
2017-11-06T23:01:53.789Z,21.58
2017-11-06T23:04:21.322Z,21.37
2017-11-06T23:06:48.845Z,22.52
2017-11-06T23:09:16.411Z,22.87
2017-11-06T23:11:43.931Z,23.83
2017-11-06T23:14:11.452Z,19.65
2017-11-06T23:16:39.004Z,17.65
2017-11-06T23:19:06.531Z,18.60
2017-11-06T23:21:34.097Z,24.10
2017-11-06T23:24:02.021Z,24.52
2017-11-06T23:26:29.574Z,20.20
2017-11-06T23:28:57.118Z,22.67
2017-11-06T23:31:25.193Z,27.92
2017-11-06T23:33:52.777Z,19.25
2017-11-06T23:36:20.293Z,19.42
2017-11-06T23:38:47.830Z,19.73
2017-11-06T23:41:15.405Z,19.08
2017-11-06T23:43:43.510Z,16.05
2017-11-06T23:46:11.028Z,17.98
2017-11-06T23:48:38.578Z,16.40
2017-11-06T23:51:06.107Z,17.42
2017-11-06T23:53:33.682Z,15.55
2017-11-06T23:56:01.205Z,21.20
2017-11-06T23:58:28.729Z,15.57
